sensor_id;sensor_type;location;lat;lon;timestamp;pressure;altitude;pressure_sealevel;temperature;humidity
74722;BME280;63470;49.826;6.740;2022-12-20T00:00:54;100517.54;;;3.97;68.14
74722;BME280;63470;49.826;6.740;2022-12-20T00:03:23;100515.47;;;3.90;68.25
74722;BME280;63470;49.826;6.740;2022-12-20T00:05:54;100515.08;;;3.85;68.35
74722;BME280;63470;49.826;6.740;2022-12-20T00:08:24;100508.46;;;3.85;68.36
74722;BME280;63470;49.826;6.740;2022-12-20T00:10:54;100507.50;;;3.85;68.32
74722;BME280;63470;49.826;6.740;2022-12-20T00:13:25;100503.39;;;3.83;68.29
74722;BME280;63470;49.826;6.740;2022-12-20T00:16:10;100502.76;;;3.76;68.29
74722;BME280;63470;49.826;6.740;2022-12-20T00:18:26;100501.91;;;3.68;68.31
74722;BME280;63470;49.826;6.740;2022-12-20T00:20:57;100499.47;;;3.57;68.40
74722;BME280;63470;49.826;6.740;2022-12-20T00:23:32;100498.61;;;3.46;68.46
74722;BME280;63470;49.826;6.740;2022-12-20T00:26:06;100506.02;;;3.36;68.56
74722;BME280;63470;49.826;6.740;2022-12-20T00:28:30;100503.68;;;3.23;68.61
74722;BME280;63470;49.826;6.740;2022-12-20T00:30:58;100508.95;;;3.09;68.69
74722;BME280;63470;49.826;6.740;2022-12-20T00:33:32;100509.83;;;2.95;68.77
74722;BME280;63470;49.826;6.740;2022-12-20T00:35:58;100509.75;;;2.82;68.82
74722;BME280;63470;49.826;6.740;2022-12-20T00:38:29;100507.74;;;2.72;68.86
74722;BME280;63470;49.826;6.740;2022-12-20T00:41:08;100506.09;;;2.62;68.88
74722;BME280;63470;49.826;6.740;2022-12-20T00:43:34;100499.97;;;2.50;68.93
74722;BME280;63470;49.826;6.740;2022-12-20T00:46:01;100502.62;;;2.44;68.97
74722;BME280;63470;49.826;6.740;2022-12-20T00:48:32;100500.48;;;2.36;68.88
74722;BME280;63470;49.826;6.740;2022-12-20T00:51:05;100501.52;;;2.24;68.86
74722;BME280;63470;49.826;6.740;2022-12-20T00:53:32;100496.70;;;2.11;68.94
74722;BME280;63470;49.826;6.740;2022-12-20T00:56:02;100501.52;;;2.01;69.04
74722;BME280;63470;49.826;6.740;2022-12-20T00:58:37;100497.58;;;1.96;69.10
74722;BME280;63470;49.826;6.740;2022-12-20T01:01:04;100499.39;;;1.94;69.11
74722;BME280;63470;49.826;6.740;2022-12-20T01:03:33;100502.12;;;1.93;69.16
74722;BME280;63470;49.826;6.740;2022-12-20T01:06:04;100481.78;;;2.00;69.17
74722;BME280;63470;49.826;6.740;2022-12-20T01:08:34;100475.66;;;2.10;68.93
74722;BME280;63470;49.826;6.740;2022-12-20T01:11:10;100474.99;;;2.17;68.79
74722;BME280;63470;49.826;6.740;2022-12-20T01:13:37;100473.89;;;2.19;68.72
74722;BME280;63470;49.826;6.740;2022-12-20T01:16:10;100460.84;;;2.20;68.75
74722;BME280;63470;49.826;6.740;2022-12-20T01:18:36;100465.27;;;2.23;68.75
74722;BME280;63470;49.826;6.740;2022-12-20T01:21:09;100475.36;;;2.26;68.67
74722;BME280;63470;49.826;6.740;2022-12-20T01:23:39;100471.22;;;2.30;68.63
74722;BME280;63470;49.826;6.740;2022-12-20T01:26:17;100474.56;;;2.39;68.55
74722;BME280;63470;49.826;6.740;2022-12-20T01:28:41;100471.53;;;2.45;68.47
74722;BME280;63470;49.826;6.740;2022-12-20T01:31:12;100469.61;;;2.55;68.43
74722;BME280;63470;49.826;6.740;2022-12-20T01:33:42;100471.94;;;2.66;68.32
74722;BME280;63470;49.826;6.740;2022-12-20T01:36:14;100470.61;;;2.73;68.17
74722;BME280;63470;49.826;6.740;2022-12-20T01:38:45;100473.36;;;2.80;68.17
74722;BME280;63470;49.826;6.740;2022-12-20T01:41:20;100463.69;;;2.85;68.16
74722;BME280;63470;49.826;6.740;2022-12-20T01:43:57;100464.56;;;2.85;68.08
74722;BME280;63470;49.826;6.740;2022-12-20T01:46:17;100456.21;;;2.83;68.18
74722;BME280;63470;49.826;6.740;2022-12-20T01:48:49;100446.99;;;2.82;68.25
74722;BME280;63470;49.826;6.740;2022-12-20T01:51:14;100453.72;;;2.84;68.28
74722;BME280;63470;49.826;6.740;2022-12-20T01:53:46;100454.31;;;2.84;68.23
74722;BME280;63470;49.826;6.740;2022-12-20T01:56:15;100451.25;;;2.82;68.28
74722;BME280;63470;49.826;6.740;2022-12-20T01:58:51;100461.50;;;2.81;68.34
74722;BME280;63470;49.826;6.740;2022-12-20T02:01:16;100467.45;;;2.82;68.36
74722;BME280;63470;49.826;6.740;2022-12-20T02:03:47;100464.45;;;2.86;68.37
74722;BME280;63470;49.826;6.740;2022-12-20T02:06:22;100457.66;;;2.94;68.28
74722;BME280;63470;49.826;6.740;2022-12-20T02:08:49;100457.39;;;3.02;68.15
74722;BME280;63470;49.826;6.740;2022-12-20T02:14:03;100467.95;;;3.14;68.07
74722;BME280;63470;49.826;6.740;2022-12-20T02:16:25;100463.93;;;3.21;68.07
74722;BME280;63470;49.826;6.740;2022-12-20T02:24:04;100439.22;;;3.36;67.85
74722;BME280;63470;49.826;6.740;2022-12-20T02:26:50;100427.33;;;3.36;67.85
74722;BME280;63470;49.826;6.740;2022-12-20T02:29:21;100419.23;;;3.35;67.83
74722;BME280;63470;49.826;6.740;2022-12-20T02:31:26;100418.05;;;3.32;67.91
74722;BME280;63470;49.826;6.740;2022-12-20T02:33:55;100411.82;;;3.31;67.99
74722;BME280;63470;49.826;6.740;2022-12-20T02:36:27;100400.34;;;3.31;67.97
74722;BME280;63470;49.826;6.740;2022-12-20T02:38:55;100397.33;;;3.31;67.97
74722;BME280;63470;49.826;6.740;2022-12-20T02:41:32;100402.98;;;3.29;67.97
74722;BME280;63470;49.826;6.740;2022-12-20T02:44:31;100413.08;;;3.28;68.00
74722;BME280;63470;49.826;6.740;2022-12-20T02:46:27;100405.40;;;3.26;67.98
74722;BME280;63470;49.826;6.740;2022-12-20T02:49:04;100418.25;;;3.25;68.04
74722;BME280;63470;49.826;6.740;2022-12-20T02:51:29;100407.77;;;3.27;68.05
74722;BME280;63470;49.826;6.740;2022-12-20T02:53:59;100412.44;;;3.28;68.04
74722;BME280;63470;49.826;6.740;2022-12-20T02:56:39;100405.24;;;3.31;68.01
74722;BME280;63470;49.826;6.740;2022-12-20T02:59:09;100402.87;;;3.32;68.00
74722;BME280;63470;49.826;6.740;2022-12-20T03:01:32;100408.03;;;3.33;68.05
74722;BME280;63470;49.826;6.740;2022-12-20T03:04:03;100414.81;;;3.33;68.06
74722;BME280;63470;49.826;6.740;2022-12-20T03:06:34;100407.47;;;3.33;68.04
74722;BME280;63470;49.826;6.740;2022-12-20T03:09:06;100404.59;;;3.31;68.06
74722;BME280;63470;49.826;6.740;2022-12-20T03:11:32;100398.33;;;3.28;68.13
74722;BME280;63470;49.826;6.740;2022-12-20T03:14:06;100385.00;;;3.25;68.23
74722;BME280;63470;49.826;6.740;2022-12-20T03:16:36;100378.12;;;3.24;68.29
74722;BME280;63470;49.826;6.740;2022-12-20T03:19:03;100376.03;;;3.26;68.34
74722;BME280;63470;49.826;6.740;2022-12-20T03:21:34;100371.52;;;3.29;68.32
74722;BME280;63470;49.826;6.740;2022-12-20T03:24:05;100364.70;;;3.31;68.29
74722;BME280;63470;49.826;6.740;2022-12-20T03:26:35;100363.59;;;3.33;68.24
74722;BME280;63470;49.826;6.740;2022-12-20T03:29:06;100368.00;;;3.33;68.28
74722;BME280;63470;49.826;6.740;2022-12-20T03:31:36;100375.20;;;3.36;68.24
74722;BME280;63470;49.826;6.740;2022-12-20T03:34:07;100385.29;;;3.39;68.23
74722;BME280;63470;49.826;6.740;2022-12-20T03:36:38;100386.03;;;3.45;68.16
74722;BME280;63470;49.826;6.740;2022-12-20T03:39:08;100385.86;;;3.49;68.02
74722;BME280;63470;49.826;6.740;2022-12-20T03:41:40;100396.52;;;3.53;67.98
74722;BME280;63470;49.826;6.740;2022-12-20T03:44:10;100394.86;;;3.57;67.92
74722;BME280;63470;49.826;6.740;2022-12-20T03:46:40;100389.91;;;3.63;67.90
74722;BME280;63470;49.826;6.740;2022-12-20T03:49:11;100384.05;;;3.71;67.90
74722;BME280;63470;49.826;6.740;2022-12-20T03:51:47;100382.98;;;3.78;67.90
74722;BME280;63470;49.826;6.740;2022-12-20T03:54:15;100382.61;;;3.85;67.88
74722;BME280;63470;49.826;6.740;2022-12-20T03:56:46;100388.14;;;3.89;67.83
74722;BME280;63470;49.826;6.740;2022-12-20T03:59:15;100382.20;;;3.90;67.77
74722;BME280;63470;49.826;6.740;2022-12-20T04:01:44;100367.84;;;3.90;67.77
74722;BME280;63470;49.826;6.740;2022-12-20T04:04:16;100368.00;;;3.90;67.84
74722;BME280;63470;49.826;6.740;2022-12-20T04:06:45;100381.00;;;3.92;67.89
74722;BME280;63470;49.826;6.740;2022-12-20T04:09:15;100376.44;;;3.94;67.92
74722;BME280;63470;49.826;6.740;2022-12-20T04:11:46;100369.57;;;3.98;67.90
74722;BME280;63470;49.826;6.740;2022-12-20T04:14:17;100361.86;;;4.03;67.89
74722;BME280;63470;49.826;6.740;2022-12-20T04:16:52;100356.41;;;4.04;67.89
74722;BME280;63470;49.826;6.740;2022-12-20T04:19:17;100352.09;;;4.05;67.84
74722;BME280;63470;49.826;6.740;2022-12-20T04:21:49;100347.20;;;4.05;67.87
74722;BME280;63470;49.826;6.740;2022-12-20T04:24:19;100345.77;;;4.08;67.88
74722;BME280;63470;49.826;6.740;2022-12-20T04:26:49;100348.80;;;4.10;67.92
74722;BME280;63470;49.826;6.740;2022-12-20T04:29:20;100353.09;;;4.13;67.90
74722;BME280;63470;49.826;6.740;2022-12-20T04:31:50;100348.22;;;4.15;67.91
74722;BME280;63470;49.826;6.740;2022-12-20T04:34:21;100342.05;;;4.17;67.88
74722;BME280;63470;49.826;6.740;2022-12-20T04:36:52;100335.44;;;4.20;67.87
74722;BME280;63470;49.826;6.740;2022-12-20T04:39:22;100328.22;;;4.22;67.83
74722;BME280;63470;49.826;6.740;2022-12-20T04:41:53;100338.32;;;4.21;67.90
74722;BME280;63470;49.826;6.740;2022-12-20T04:44:23;100342.44;;;4.23;68.00
74722;BME280;63470;49.826;6.740;2022-12-20T04:46:56;100342.83;;;4.28;67.98
74722;BME280;63470;49.826;6.740;2022-12-20T04:49:26;100342.22;;;4.32;67.92
74722;BME280;63470;49.826;6.740;2022-12-20T04:52:05;100342.89;;;4.35;67.88
74722;BME280;63470;49.826;6.740;2022-12-20T04:54:26;100334.34;;;4.37;67.91
74722;BME280;63470;49.826;6.740;2022-12-20T04:56:59;100326.76;;;4.39;67.90
74722;BME280;63470;49.826;6.740;2022-12-20T04:59:27;100327.16;;;4.39;67.91
74722;BME280;63470;49.826;6.740;2022-12-20T05:02:00;100321.38;;;4.41;67.94
74722;BME280;63470;49.826;6.740;2022-12-20T05:04:34;100327.30;;;4.42;68.00
74722;BME280;63470;49.826;6.740;2022-12-20T05:07:04;100329.61;;;4.46;68.00
74722;BME280;63470;49.826;6.740;2022-12-20T05:09:35;100323.24;;;4.47;67.99
74722;BME280;63470;49.826;6.740;2022-12-20T05:12:00;100325.50;;;4.51;67.93
74722;BME280;63470;49.826;6.740;2022-12-20T05:14:31;100323.23;;;4.55;67.92
74722;BME280;63470;49.826;6.740;2022-12-20T05:17:02;100316.48;;;4.59;67.90
74722;BME280;63470;49.826;6.740;2022-12-20T05:19:32;100321.55;;;4.64;67.91
74722;BME280;63470;49.826;6.740;2022-12-20T05:22:39;100321.33;;;4.69;67.84
74722;BME280;63470;49.826;6.740;2022-12-20T05:25:10;100320.53;;;4.71;67.72
74722;BME280;63470;49.826;6.740;2022-12-20T05:27:05;100317.36;;;4.72;67.69
74722;BME280;63470;49.826;6.740;2022-12-20T05:29:34;100310.58;;;4.75;67.70
74722;BME280;63470;49.826;6.740;2022-12-20T05:32:07;100305.53;;;4.77;67.72
74722;BME280;63470;49.826;6.740;2022-12-20T05:34:37;100300.91;;;4.80;67.82
74722;BME280;63470;49.826;6.740;2022-12-20T05:37:10;100298.02;;;4.84;67.83
74722;BME280;63470;49.826;6.740;2022-12-20T05:39:36;100305.30;;;4.87;67.88
74722;BME280;63470;49.826;6.740;2022-12-20T05:42:06;100302.05;;;4.88;67.86
74722;BME280;63470;49.826;6.740;2022-12-20T05:44:42;100302.46;;;4.90;67.85
74722;BME280;63470;49.826;6.740;2022-12-20T05:47:10;100295.53;;;4.90;67.85
74722;BME280;63470;49.826;6.740;2022-12-20T05:49:42;100300.77;;;4.92;67.94
74722;BME280;63470;49.826;6.740;2022-12-20T05:52:08;100300.14;;;4.94;67.99
74722;BME280;63470;49.826;6.740;2022-12-20T05:54:39;100303.51;;;4.98;67.96
74722;BME280;63470;49.826;6.740;2022-12-20T05:57:12;100299.20;;;5.00;68.00
74722;BME280;63470;49.826;6.740;2022-12-20T05:59:43;100300.87;;;5.05;67.95
74722;BME280;63470;49.826;6.740;2022-12-20T06:02:13;100306.45;;;5.11;67.83
74722;BME280;63470;49.826;6.740;2022-12-20T06:04:46;100301.73;;;5.13;67.77
74722;BME280;63470;49.826;6.740;2022-12-20T06:07:13;100300.75;;;5.13;67.76
74722;BME280;63470;49.826;6.740;2022-12-20T06:09:41;100300.92;;;5.13;67.74
74722;BME280;63470;49.826;6.740;2022-12-20T06:12:12;100289.98;;;5.16;67.74
74722;BME280;63470;49.826;6.740;2022-12-20T06:14:45;100296.16;;;5.23;67.75
74722;BME280;63470;49.826;6.740;2022-12-20T06:17:17;100296.86;;;5.29;67.71
74722;BME280;63470;49.826;6.740;2022-12-20T06:19:44;100292.57;;;5.35;67.67
74722;BME280;63470;49.826;6.740;2022-12-20T06:22:20;100281.72;;;5.39;67.75
74722;BME280;63470;49.826;6.740;2022-12-20T06:24:48;100274.86;;;5.41;67.75
74722;BME280;63470;49.826;6.740;2022-12-20T06:27:21;100270.67;;;5.39;67.83
74722;BME280;63470;49.826;6.740;2022-12-20T06:29:57;100267.02;;;5.34;67.93
74722;BME280;63470;49.826;6.740;2022-12-20T06:32:19;100271.27;;;5.30;68.10
74722;BME280;63470;49.826;6.740;2022-12-20T06:34:50;100268.66;;;5.31;68.16
74722;BME280;63470;49.826;6.740;2022-12-20T06:37:20;100268.44;;;5.36;68.15
74722;BME280;63470;49.826;6.740;2022-12-20T06:39:53;100272.47;;;5.40;68.06
74722;BME280;63470;49.826;6.740;2022-12-20T06:42:23;100269.77;;;5.41;68.10
74722;BME280;63470;49.826;6.740;2022-12-20T06:44:51;100271.73;;;5.43;68.03
74722;BME280;63470;49.826;6.740;2022-12-20T06:47:22;100275.16;;;5.38;68.00
74722;BME280;63470;49.826;6.740;2022-12-20T06:49:55;100274.56;;;5.33;67.98
74722;BME280;63470;49.826;6.740;2022-12-20T06:52:23;100270.97;;;5.23;68.04
74722;BME280;63470;49.826;6.740;2022-12-20T06:54:54;100277.78;;;5.15;68.18
74722;BME280;63470;49.826;6.740;2022-12-20T06:57:27;100278.23;;;5.19;68.31
74722;BME280;63470;49.826;6.740;2022-12-20T06:59:55;100267.44;;;5.31;68.24
74722;BME280;63470;49.826;6.740;2022-12-20T07:02:26;100257.34;;;5.41;68.08
74722;BME280;63470;49.826;6.740;2022-12-20T07:04:55;100249.20;;;5.49;68.01
74722;BME280;63470;49.826;6.740;2022-12-20T07:07:26;100244.05;;;5.54;67.99
74722;BME280;63470;49.826;6.740;2022-12-20T07:10:01;100253.41;;;5.58;67.99
74722;BME280;63470;49.826;6.740;2022-12-20T07:12:27;100246.54;;;5.62;68.01
74722;BME280;63470;49.826;6.740;2022-12-20T07:15:03;100248.14;;;5.67;67.98
74722;BME280;63470;49.826;6.740;2022-12-20T07:17:29;100240.94;;;5.71;67.89
74722;BME280;63470;49.826;6.740;2022-12-20T07:20:01;100243.88;;;5.74;67.82
74722;BME280;63470;49.826;6.740;2022-12-20T07:22:30;100249.08;;;5.77;67.83
74722;BME280;63470;49.826;6.740;2022-12-20T07:25:04;100245.79;;;5.80;67.80
74722;BME280;63470;49.826;6.740;2022-12-20T07:27:36;100245.47;;;5.80;67.80
74722;BME280;63470;49.826;6.740;2022-12-20T07:30:02;100236.16;;;5.83;67.83
74722;BME280;63470;49.826;6.740;2022-12-20T07:32:32;100235.95;;;5.84;67.85
74722;BME280;63470;49.826;6.740;2022-12-20T07:35:05;100230.94;;;5.84;67.92
74722;BME280;63470;49.826;6.740;2022-12-20T07:37:36;100233.81;;;5.85;68.02
74722;BME280;63470;49.826;6.740;2022-12-20T07:40:06;100233.02;;;5.87;68.05
74722;BME280;63470;49.826;6.740;2022-12-20T07:42:37;100236.79;;;5.91;68.10
74722;BME280;63470;49.826;6.740;2022-12-20T07:45:08;100235.73;;;5.97;68.06
74722;BME280;63470;49.826;6.740;2022-12-20T07:47:35;100235.92;;;6.03;67.94
74722;BME280;63470;49.826;6.740;2022-12-20T07:50:07;100235.52;;;6.07;67.95
74722;BME280;63470;49.826;6.740;2022-12-20T07:52:39;100232.83;;;6.14;67.91
74722;BME280;63470;49.826;6.740;2022-12-20T07:55:13;100236.45;;;6.20;67.87
74722;BME280;63470;49.826;6.740;2022-12-20T07:57:41;100237.52;;;6.25;67.81
74722;BME280;63470;49.826;6.740;2022-12-20T08:00:09;100239.00;;;6.29;67.81
74722;BME280;63470;49.826;6.740;2022-12-20T08:02:46;100233.27;;;6.35;67.76
74722;BME280;63470;49.826;6.740;2022-12-20T08:05:10;100237.22;;;6.38;67.77
74722;BME280;63470;49.826;6.740;2022-12-20T08:07:41;100235.33;;;6.42;67.90
74722;BME280;63470;49.826;6.740;2022-12-20T08:10:13;100243.44;;;6.47;67.98
74722;BME280;63470;49.826;6.740;2022-12-20T08:12:44;100240.92;;;6.52;67.92
74722;BME280;63470;49.826;6.740;2022-12-20T08:15:15;100242.30;;;6.55;67.93
74722;BME280;63470;49.826;6.740;2022-12-20T08:17:42;100241.25;;;6.58;67.88
74722;BME280;63470;49.826;6.740;2022-12-20T08:20:17;100244.19;;;6.61;67.89
74722;BME280;63470;49.826;6.740;2022-12-20T08:22:43;100241.14;;;6.63;67.87
74722;BME280;63470;49.826;6.740;2022-12-20T08:25:14;100240.92;;;6.64;67.87
74722;BME280;63470;49.826;6.740;2022-12-20T08:27:44;100235.75;;;6.64;67.83
74722;BME280;63470;49.826;6.740;2022-12-20T08:30:18;100240.49;;;6.61;67.80
74722;BME280;63470;49.826;6.740;2022-12-20T08:32:49;100242.95;;;6.57;67.87
74722;BME280;63470;49.826;6.740;2022-12-20T08:35:19;100236.66;;;6.52;67.86
74722;BME280;63470;49.826;6.740;2022-12-20T08:37:50;100233.60;;;6.49;67.88
74722;BME280;63470;49.826;6.740;2022-12-20T08:40:20;100228.94;;;6.49;67.89
74722;BME280;63470;49.826;6.740;2022-12-20T08:42:50;100229.36;;;6.54;67.90
74722;BME280;63470;49.826;6.740;2022-12-20T08:45:19;100226.55;;;6.61;67.87
74722;BME280;63470;49.826;6.740;2022-12-20T08:47:50;100225.98;;;6.69;67.90
74722;BME280;63470;49.826;6.740;2022-12-20T08:50:22;100222.55;;;6.78;67.85
74722;BME280;63470;49.826;6.740;2022-12-20T08:52:52;100224.90;;;6.87;67.76
74722;BME280;63470;49.826;6.740;2022-12-20T08:55:22;100224.83;;;6.95;67.73
74722;BME280;63470;49.826;6.740;2022-12-20T08:57:50;100222.00;;;7.01;67.78
74722;BME280;63470;49.826;6.740;2022-12-20T09:00:23;100220.27;;;7.07;67.79
74722;BME280;63470;49.826;6.740;2022-12-20T09:02:54;100218.29;;;7.13;67.76
74722;BME280;63470;49.826;6.740;2022-12-20T09:05:27;100213.11;;;7.20;67.78
74722;BME280;63470;49.826;6.740;2022-12-20T09:07:54;100211.20;;;7.23;67.71
74722;BME280;63470;49.826;6.740;2022-12-20T09:10:25;100206.70;;;7.27;67.72
74722;BME280;63470;49.826;6.740;2022-12-20T09:12:56;100204.22;;;7.30;67.77
74722;BME280;63470;49.826;6.740;2022-12-20T09:15:24;100209.06;;;7.33;67.77
74722;BME280;63470;49.826;6.740;2022-12-20T09:18:00;100214.68;;;7.39;67.78
74722;BME280;63470;49.826;6.740;2022-12-20T09:20:28;100207.70;;;7.45;67.81
74722;BME280;63470;49.826;6.740;2022-12-20T09:22:57;100203.13;;;7.53;67.73
74722;BME280;63470;49.826;6.740;2022-12-20T09:25:29;100209.27;;;7.62;67.70
74722;BME280;63470;49.826;6.740;2022-12-20T09:27:57;100207.23;;;7.76;67.62
74722;BME280;63470;49.826;6.740;2022-12-20T09:30:30;100204.88;;;7.86;67.48
74722;BME280;63470;49.826;6.740;2022-12-20T09:33:01;100208.02;;;7.97;67.43
74722;BME280;63470;49.826;6.740;2022-12-20T09:35:35;100203.19;;;8.09;67.36
74722;BME280;63470;49.826;6.740;2022-12-20T09:38:00;100203.78;;;8.19;67.32
74722;BME280;63470;49.826;6.740;2022-12-20T09:40:30;100198.20;;;8.33;67.27
74722;BME280;63470;49.826;6.740;2022-12-20T09:43:07;100190.16;;;8.44;67.10
74722;BME280;63470;49.826;6.740;2022-12-20T09:45:35;100186.77;;;8.53;67.12
74722;BME280;63470;49.826;6.740;2022-12-20T09:48:25;100183.32;;;8.64;67.15
74722;BME280;63470;49.826;6.740;2022-12-20T09:50:45;100187.64;;;8.75;67.14
74722;BME280;63470;49.826;6.740;2022-12-20T09:53:27;100178.11;;;8.83;67.11
74722;BME280;63470;49.826;6.740;2022-12-20T09:55:46;100183.40;;;8.90;67.04
74722;BME280;63470;49.826;6.740;2022-12-20T10:00:43;100176.73;;;9.06;67.03
74722;BME280;63470;49.826;6.740;2022-12-20T10:03:03;100175.67;;;9.12;66.89
74722;BME280;63470;49.826;6.740;2022-12-20T10:05:45;100175.36;;;9.18;66.88
74722;BME280;63470;49.826;6.740;2022-12-20T10:10:52;100175.80;;;9.36;66.88
74722;BME280;63470;49.826;6.740;2022-12-20T10:13:47;100169.19;;;9.52;66.84
74722;BME280;63470;49.826;6.740;2022-12-20T10:15:42;100164.72;;;9.73;66.74
74722;BME280;63470;49.826;6.740;2022-12-20T10:23:24;100158.38;;;10.39;66.44
74722;BME280;63470;49.826;6.740;2022-12-20T10:25:39;100166.82;;;10.58;66.40
74722;BME280;63470;49.826;6.740;2022-12-20T10:28:15;100163.52;;;10.72;66.40
74722;BME280;63470;49.826;6.740;2022-12-20T10:30:36;100159.71;;;10.82;66.41
74722;BME280;63470;49.826;6.740;2022-12-20T10:33:15;100157.00;;;10.90;66.52
74722;BME280;63470;49.826;6.740;2022-12-20T10:35:40;100156.66;;;10.99;66.60
74722;BME280;63470;49.826;6.740;2022-12-20T10:38:14;100150.97;;;11.11;66.54
74722;BME280;63470;49.826;6.740;2022-12-20T10:43:21;100142.55;;;11.35;66.50
74722;BME280;63470;49.826;6.740;2022-12-20T10:45:43;100129.03;;;11.46;66.48
74722;BME280;63470;49.826;6.740;2022-12-20T10:48:32;100123.66;;;11.54;66.48
74722;BME280;63470;49.826;6.740;2022-12-20T10:50:52;100120.42;;;11.63;66.49
74722;BME280;63470;49.826;6.740;2022-12-20T10:53:18;100118.16;;;11.76;66.50
74722;BME280;63470;49.826;6.740;2022-12-20T10:55:42;100118.97;;;11.94;66.40
74722;BME280;63470;49.826;6.740;2022-12-20T10:58:21;100120.27;;;12.14;66.25
74722;BME280;63470;49.826;6.740;2022-12-20T11:00:43;100118.67;;;12.31;66.09
74722;BME280;63470;49.826;6.740;2022-12-20T11:03:18;100109.99;;;12.38;65.99
74722;BME280;63470;49.826;6.740;2022-12-20T11:06:02;100110.87;;;12.36;66.07
74722;BME280;63470;49.826;6.740;2022-12-20T11:08:16;100114.62;;;12.37;66.16
74722;BME280;63470;49.826;6.740;2022-12-20T11:10:44;100113.42;;;12.48;66.24
74722;BME280;63470;49.826;6.740;2022-12-20T11:13:22;100111.36;;;12.61;66.20
74722;BME280;63470;49.826;6.740;2022-12-20T11:15:49;100112.41;;;12.72;66.10
74722;BME280;63470;49.826;6.740;2022-12-20T11:21:02;100098.50;;;12.90;66.08
74722;BME280;63470;49.826;6.740;2022-12-20T11:33:55;100060.56;;;12.75;66.83
74722;BME280;63470;49.826;6.740;2022-12-20T11:36:11;100054.88;;;12.65;67.00
74722;BME280;63470;49.826;6.740;2022-12-20T11:38:48;100049.28;;;12.61;67.14
74722;BME280;63470;49.826;6.740;2022-12-20T11:41:03;100041.27;;;12.57;67.21
74722;BME280;63470;49.826;6.740;2022-12-20T11:46:02;100040.91;;;12.55;67.33
74722;BME280;63470;49.826;6.740;2022-12-20T11:50:57;100034.36;;;12.56;67.26
74722;BME280;63470;49.826;6.740;2022-12-20T11:53:42;100029.80;;;12.65;67.13
74722;BME280;63470;49.826;6.740;2022-12-20T11:56:02;100015.02;;;12.95;66.87
74722;BME280;63470;49.826;6.740;2022-12-20T12:01:04;99996.75;;;13.60;66.45
74722;BME280;63470;49.826;6.740;2022-12-20T12:03:33;99988.31;;;14.04;65.98
74722;BME280;63470;49.826;6.740;2022-12-20T12:06:15;99986.95;;;14.37;65.65
74722;BME280;63470;49.826;6.740;2022-12-20T12:08:31;99985.00;;;14.68;65.28
74722;BME280;63470;49.826;6.740;2022-12-20T12:11:09;99989.43;;;14.69;65.22
74722;BME280;63470;49.826;6.740;2022-12-20T12:13:27;99991.31;;;14.61;65.46
74722;BME280;63470;49.826;6.740;2022-12-20T12:16:15;99997.24;;;14.51;65.79
74722;BME280;63470;49.826;6.740;2022-12-20T12:18:28;100000.31;;;14.37;66.12
74722;BME280;63470;49.826;6.740;2022-12-20T12:21:22;100001.70;;;14.22;66.42
74722;BME280;63470;49.826;6.740;2022-12-20T12:23:43;100000.30;;;14.10;66.69
74722;BME280;63470;49.826;6.740;2022-12-20T12:26:01;100000.73;;;14.05;66.80
74722;BME280;63470;49.826;6.740;2022-12-20T12:28:28;100004.70;;;14.03;66.83
74722;BME280;63470;49.826;6.740;2022-12-20T12:31:03;100002.00;;;13.97;66.86
74722;BME280;63470;49.826;6.740;2022-12-20T12:33:35;100008.41;;;13.99;66.82
74722;BME280;63470;49.826;6.740;2022-12-20T12:36:15;100006.89;;;14.09;66.64
74722;BME280;63470;49.826;6.740;2022-12-20T12:38:45;100001.17;;;14.21;66.46
74722;BME280;63470;49.826;6.740;2022-12-20T12:41:28;99996.28;;;14.29;66.34
74722;BME280;63470;49.826;6.740;2022-12-20T12:46:10;99997.61;;;14.48;66.21
74722;BME280;63470;49.826;6.740;2022-12-20T12:48:51;99997.69;;;14.57;66.05
74722;BME280;63470;49.826;6.740;2022-12-20T12:51:03;99989.61;;;14.55;66.11
74722;BME280;63470;49.826;6.740;2022-12-20T12:53:45;99987.66;;;14.45;66.29
74722;BME280;63470;49.826;6.740;2022-12-20T12:58:34;99983.75;;;14.21;66.73
74722;BME280;63470;49.826;6.740;2022-12-20T13:01:10;99977.38;;;14.11;66.93
74722;BME280;63470;49.826;6.740;2022-12-20T13:03:40;99976.19;;;14.07;67.11
74722;BME280;63470;49.826;6.740;2022-12-20T13:09:07;99961.38;;;14.27;67.12
74722;BME280;63470;49.826;6.740;2022-12-20T13:11:11;99952.70;;;14.43;66.68
74722;BME280;63470;49.826;6.740;2022-12-20T13:13:37;99954.36;;;14.43;66.61
74722;BME280;63470;49.826;6.740;2022-12-20T13:16:10;99959.75;;;14.32;66.74
74722;BME280;63470;49.826;6.740;2022-12-20T13:18:54;99958.33;;;14.17;66.99
74722;BME280;63470;49.826;6.740;2022-12-20T13:21:35;99956.82;;;14.03;67.21
74722;BME280;63470;49.826;6.740;2022-12-20T13:23:42;99957.66;;;13.91;67.40
74722;BME280;63470;49.826;6.740;2022-12-20T13:26:42;99953.27;;;13.81;67.47
74722;BME280;63470;49.826;6.740;2022-12-20T13:28:42;99955.68;;;13.71;67.50
74722;BME280;63470;49.826;6.740;2022-12-20T13:33:46;99961.62;;;13.46;67.81
74722;BME280;63470;49.826;6.740;2022-12-20T13:36:33;99964.53;;;13.35;67.94
74722;BME280;63470;49.826;6.740;2022-12-20T13:38:55;99959.70;;;13.25;68.03
74722;BME280;63470;49.826;6.740;2022-12-20T13:41:44;99961.04;;;13.17;68.08
74722;BME280;63470;49.826;6.740;2022-12-20T13:43:45;99957.16;;;13.11;68.11
74722;BME280;63470;49.826;6.740;2022-12-20T13:46:32;99952.88;;;13.09;68.15
74722;BME280;63470;49.826;6.740;2022-12-20T13:48:52;99947.45;;;13.09;68.13
74722;BME280;63470;49.826;6.740;2022-12-20T13:51:26;99950.36;;;13.12;68.07
74722;BME280;63470;49.826;6.740;2022-12-20T13:54:00;99942.77;;;13.14;68.03
74722;BME280;63470;49.826;6.740;2022-12-20T13:56:46;99945.75;;;13.14;67.97
74722;BME280;63470;49.826;6.740;2022-12-20T13:58:47;99948.05;;;13.11;67.91
74722;BME280;63470;49.826;6.740;2022-12-20T14:01:21;99945.51;;;13.08;67.89
74722;BME280;63470;49.826;6.740;2022-12-20T14:03:49;99935.80;;;13.06;67.89
74722;BME280;63470;49.826;6.740;2022-12-20T14:06:21;99943.59;;;13.06;67.82